Time;durP1;ratioP1;P1;durP2;ratioP2;P2;SDS_P1;SDS_P2;PMS_P1;PMS_P2;Temp;Humidity;BMP_temperature;BMP_pressure;BME280_temperature;BME280_humidity;BME280_pressure;Samples;Min_cycle;Max_cycle;Signal;HPM_P1;HPM_P2
2021/08/29 00:00:42;;;;;;;9.65;6.38;;;;;;;;;;2075124;28;20557;-53
2021/08/29 00:01:42;;;;;;;11.25;6.00;;;;;;;;;;2073981;28;20173;-54
2021/08/29 00:02:42;;;;;;;7.35;6.15;;;;;;;;;;2075636;28;20177;-52
2021/08/29 00:03:43;;;;;;;9.60;6.40;;;;;;;;;;2083624;28;20203;-56
2021/08/29 00:04:43;;;;;;;8.48;6.60;;;;;;;;;;2088572;28;20274;-54
2021/08/29 00:05:43;;;;;;;16.23;6.57;;;;;;;;;;2073030;28;20219;-55
2021/08/29 00:06:43;;;;;;;12.68;6.85;;;;;;;;;;2073638;28;20169;-53
2021/08/29 00:07:44;;;;;;;6.68;6.03;;;;;;;;;;2080213;28;20271;-52
2021/08/29 00:08:44;;;;;;;7.25;5.47;;;;;;;;;;2078610;28;20187;-51
2021/08/29 00:09:44;;;;;;;9.35;6.53;;;;;;;;;;2077628;28;20192;-51
2021/08/29 00:10:44;;;;;;;13.50;6.10;;;;;;;;;;2078722;28;20192;-54
2021/08/29 00:11:45;;;;;;;7.80;6.82;;;;;;;;;;2080566;28;20179;-52
2021/08/29 00:12:45;;;;;;;14.02;5.85;;;;;;;;;;2077515;28;20637;-54
2021/08/29 00:13:45;;;;;;;8.52;6.10;;;;;;;;;;2081487;28;20310;-55
2021/08/29 00:14:45;;;;;;;8.93;6.47;;;;;;;;;;2070101;28;20258;-51
2021/08/29 00:15:46;;;;;;;9.07;6.05;;;;;;;;;;2072705;28;20185;-52
2021/08/29 00:16:46;;;;;;;10.02;6.10;;;;;;;;;;2082459;28;20185;-53
2021/08/29 00:17:46;;;;;;;9.90;6.15;;;;;;;;;;2080717;28;20199;-55
2021/08/29 00:18:47;;;;;;;10.65;6.63;;;;;;;;;;2082901;28;20191;-52
2021/08/29 00:19:47;;;;;;;8.85;6.18;;;;;;;;;;2072961;28;20185;-55
2021/08/29 00:20:47;;;;;;;9.18;6.82;;;;;;;;;;2074323;28;20184;-53
2021/08/29 00:21:48;;;;;;;9.73;8.43;;;;;;;;;;2082734;28;20195;-52
2021/08/29 00:22:48;;;;;;;12.63;9.30;;;;;;;;;;2072558;28;20189;-52
2021/08/29 00:23:48;;;;;;;8.85;6.30;;;;;;;;;;2058716;28;20185;-52
2021/08/29 00:24:48;;;;;;;10.10;6.07;;;;;;;;;;2061919;28;20209;-53
2021/08/29 00:25:49;;;;;;;9.80;6.63;;;;;;;;;;2065204;28;20646;-51
2021/08/29 00:26:49;;;;;;;11.63;6.63;;;;;;;;;;2073878;28;20663;-51
2021/08/29 00:27:49;;;;;;;13.18;7.07;;;;;;;;;;2073090;28;20587;-55
2021/08/29 00:28:50;;;;;;;7.10;6.03;;;;;;;;;;2065539;28;20235;-52
2021/08/29 00:29:50;;;;;;;7.68;6.28;;;;;;;;;;2072461;28;20184;-53
2021/08/29 00:30:50;;;;;;;8.82;5.70;;;;;;;;;;2071793;28;20180;-54
2021/08/29 00:31:50;;;;;;;7.57;5.75;;;;;;;;;;2072572;28;20185;-52
2021/08/29 00:32:51;;;;;;;6.65;6.00;;;;;;;;;;2082468;28;20177;-52
2021/08/29 00:33:51;;;;;;;7.68;5.90;;;;;;;;;;2079713;28;20270;-50
2021/08/29 00:34:51;;;;;;;9.27;6.63;;;;;;;;;;2079486;28;20194;-54
2021/08/29 00:35:52;;;;;;;10.35;6.55;;;;;;;;;;2080976;28;20171;-51
2021/08/29 00:36:52;;;;;;;10.43;6.00;;;;;;;;;;2072952;28;20180;-54
2021/08/29 00:37:53;;;;;;;12.35;7.05;;;;;;;;;;2065178;28;20181;-53
2021/08/29 00:38:53;;;;;;;8.18;6.53;;;;;;;;;;2075730;28;20173;-54
2021/08/29 00:39:53;;;;;;;10.20;6.25;;;;;;;;;;2080325;28;20706;-53
2021/08/29 00:40:53;;;;;;;8.27;6.03;;;;;;;;;;2072238;28;20275;-52
2021/08/29 00:41:54;;;;;;;11.05;5.93;;;;;;;;;;2073007;28;20665;-54
2021/08/29 00:42:54;;;;;;;10.85;6.72;;;;;;;;;;2073049;28;20188;-51
2021/08/29 00:43:55;;;;;;;10.32;6.78;;;;;;;;;;2072874;28;20582;-51
2021/08/29 00:44:56;;;;;;;8.57;6.97;;;;;;;;;;2071949;28;20767;-50
2021/08/29 00:45:56;;;;;;;12.27;6.28;;;;;;;;;;2077023;28;20200;-53
2021/08/29 00:46:56;;;;;;;7.57;6.47;;;;;;;;;;2073595;28;20219;-51
2021/08/29 00:47:58;;;;;;;11.45;6.18;;;;;;;;;;2072661;28;20553;-51
2021/08/29 00:48:58;;;;;;;13.43;7.03;;;;;;;;;;2068502;28;20189;-52
2021/08/29 00:49:59;;;;;;;8.32;6.13;;;;;;;;;;2074677;28;20207;-56
2021/08/29 00:50:59;;;;;;;12.90;6.47;;;;;;;;;;2072715;28;20685;-53
2021/08/29 00:52:00;;;;;;;10.05;6.53;;;;;;;;;;2072590;28;20200;-54
2021/08/29 00:53:02;;;;;;;9.50;7.30;;;;;;;;;;2077114;28;20179;-51
2021/08/29 00:54:02;;;;;;;10.80;6.35;;;;;;;;;;2077128;28;20537;-57
2021/08/29 00:55:05;;;;;;;11.07;6.95;;;;;;;;;;2070526;28;20205;-52
2021/08/29 00:56:12;;;;;;;10.57;7.30;;;;;;;;;;2058167;28;20175;-56
2021/08/29 00:57:12;;;;;;;8.15;6.50;;;;;;;;;;2076340;28;20215;-50
2021/08/29 00:58:22;;;;;;;10.80;6.53;;;;;;;;;;2073561;28;20183;-54
2021/08/29 00:59:24;;;;;;;9.13;7.28;;;;;;;;;;2066585;28;20231;-54
2021/08/29 01:00:25;;;;;;;9.43;7.22;;;;;;;;;;2070158;28;20593;-54
2021/08/29 01:01:42;;;;;;;11.15;7.63;;;;;;;;;;2067663;28;20267;-55
2021/08/29 01:02:43;;;;;;;10.13;7.05;;;;;;;;;;2068535;28;20174;-54
2021/08/29 01:03:45;;;;;;;11.73;7.35;;;;;;;;;;2065146;28;20297;-51
2021/08/29 01:04:58;;;;;;;8.25;6.78;;;;;;;;;;2068912;28;20205;-51
2021/08/29 01:06:15;;;;;;;9.25;7.53;;;;;;;;;;2072969;28;20177;-53
2021/08/29 01:07:53;;;;;;;8.75;6.63;;;;;;;;;;2067692;28;20251;-52
2021/08/29 01:08:58;;;;;;;11.75;6.88;;;;;;;;;;2073531;28;20172;-50
2021/08/29 01:10:01;;;;;;;10.82;7.35;;;;;;;;;;2069228;28;20220;-51
2021/08/29 01:11:18;;;;;;;9.40;6.88;;;;;;;;;;2076220;28;20199;-51
2021/08/29 01:12:21;;;;;;;10.48;7.15;;;;;;;;;;2077454;28;20172;-51
2021/08/29 01:13:34;;;;;;;10.52;7.03;;;;;;;;;;2074645;28;20673;-53
2021/08/29 01:14:38;;;;;;;11.35;7.82;;;;;;;;;;2079362;28;20227;-53
2021/08/29 01:15:40;;;;;;;8.73;6.95;;;;;;;;;;2065177;28;20284;-54
2021/08/29 01:16:44;;;;;;;10.65;6.88;;;;;;;;;;2080731;28;20172;-54
2021/08/29 01:17:47;;;;;;;11.50;6.97;;;;;;;;;;2087772;28;20184;-53
2021/08/29 01:18:50;;;;;;;8.32;6.85;;;;;;;;;;2072367;28;20189;-52
2021/08/29 01:20:11;;;;;;;10.40;7.32;;;;;;;;;;2064813;28;20261;-52
2021/08/29 01:21:12;;;;;;;10.73;7.32;;;;;;;;;;2065187;28;20199;-53
2021/08/29 01:22:13;;;;;;;12.75;7.72;;;;;;;;;;2072727;28;20661;-52
2021/08/29 01:23:14;;;;;;;14.65;7.63;;;;;;;;;;2068738;28;20599;-51
2021/08/29 01:24:18;;;;;;;13.00;7.93;;;;;;;;;;2066702;28;20174;-53
2021/08/29 01:25:23;;;;;;;9.10;7.45;;;;;;;;;;2065053;28;20165;-51
2021/08/29 01:26:24;;;;;;;8.82;7.53;;;;;;;;;;2064841;28;20229;-51
2021/08/29 01:27:32;;;;;;;8.40;7.53;;;;;;;;;;2072382;28;20248;-52
2021/08/29 01:28:48;;;;;;;12.32;7.72;;;;;;;;;;2065204;28;20208;-51
2021/08/29 01:29:48;;;;;;;10.25;8.10;;;;;;;;;;2072492;28;20389;-53
2021/08/29 01:30:48;;;;;;;9.10;7.22;;;;;;;;;;2072527;28;20173;-51
2021/08/29 01:31:50;;;;;;;9.75;7.28;;;;;;;;;;2073734;28;20184;-51
2021/08/29 01:32:53;;;;;;;14.70;7.40;;;;;;;;;;2070229;28;20176;-50
2021/08/29 01:33:56;;;;;;;12.80;7.88;;;;;;;;;;2084472;28;20571;-50
2021/08/29 01:34:56;;;;;;;9.45;6.45;;;;;;;;;;2071570;28;20574;-50
2021/08/29 01:36:06;;;;;;;9.80;7.25;;;;;;;;;;2072954;28;20188;-52
2021/08/29 01:37:08;;;;;;;14.43;7.82;;;;;;;;;;2066476;28;20173;-52
2021/08/29 01:38:10;;;;;;;11.40;7.22;;;;;;;;;;2058768;28;20176;-51
2021/08/29 01:39:11;;;;;;;9.45;6.93;;;;;;;;;;2078243;28;20243;-51
2021/08/29 01:40:12;;;;;;;12.45;7.57;;;;;;;;;;2071889;28;20629;-52
2021/08/29 01:41:14;;;;;;;10.85;7.63;;;;;;;;;;2071774;28;20165;-52
2021/08/29 01:42:15;;;;;;;11.88;7.30;;;;;;;;;;2069786;28;20177;-53
2021/08/29 01:43:15;;;;;;;16.02;7.88;;;;;;;;;;2058177;28;20631;-51
2021/08/29 01:44:18;;;;;;;8.32;7.40;;;;;;;;;;2069902;28;20184;-52
2021/08/29 01:45:19;;;;;;;8.57;6.93;;;;;;;;;;2074175;28;20173;-51
2021/08/29 01:46:20;;;;;;;9.93;6.28;;;;;;;;;;2079119;28;20523;-53
2021/08/29 01:47:36;;;;;;;12.27;7.47;;;;;;;;;;2066409;28;20177;-52
2021/08/29 01:48:38;;;;;;;11.20;6.20;;;;;;;;;;2072634;28;20173;-53
2021/08/29 01:49:42;;;;;;;10.82;7.65;;;;;;;;;;2072120;28;20259;-55
2021/08/29 01:50:42;;;;;;;9.90;6.43;;;;;;;;;;2072488;28;20199;-51
2021/08/29 01:51:56;;;;;;;9.23;6.88;;;;;;;;;;2072656;28;20737;-54
2021/08/29 01:53:06;;;;;;;13.68;8.20;;;;;;;;;;2061197;28;20166;-54
2021/08/29 01:54:24;;;;;;;15.45;7.57;;;;;;;;;;2067980;28;20244;-52
2021/08/29 01:55:40;;;;;;;12.88;7.75;;;;;;;;;;2067131;28;20177;-51
2021/08/29 01:57:11;;;;;;;11.95;8.02;;;;;;;;;;2076516;28;20744;-51
2021/08/29 01:58:13;;;;;;;11.05;7.50;;;;;;;;;;2073734;28;20176;-53
2021/08/29 01:59:13;;;;;;;14.05;7.32;;;;;;;;;;2072601;28;20196;-54
2021/08/29 02:00:14;;;;;;;13.30;8.13;;;;;;;;;;2071560;28;20885;-54
2021/08/29 02:01:14;;;;;;;15.13;8.82;;;;;;;;;;2063493;28;20257;-51
2021/08/29 02:02:15;;;;;;;12.38;9.05;;;;;;;;;;2064048;28;20169;-54
2021/08/29 02:03:15;;;;;;;15.27;8.25;;;;;;;;;;2068574;28;20228;-53
2021/08/29 02:04:21;;;;;;;12.88;8.32;;;;;;;;;;2074074;28;20189;-53
2021/08/29 02:05:25;;;;;;;13.40;8.25;;;;;;;;;;2078713;28;20774;-52
2021/08/29 02:06:36;;;;;;;17.10;9.23;;;;;;;;;;2063892;28;20176;-51
2021/08/29 02:07:37;;;;;;;13.38;8.60;;;;;;;;;;2065748;28;20200;-55
2021/08/29 02:09:05;;;;;;;16.75;9.00;;;;;;;;;;2067792;28;20276;-55
2021/08/29 02:10:11;;;;;;;13.32;8.75;;;;;;;;;;2071087;28;20267;-53
2021/08/29 02:11:12;;;;;;;12.50;9.15;;;;;;;;;;2072445;28;20174;-52
2021/08/29 02:12:12;;;;;;;10.93;9.13;;;;;;;;;;2081094;28;20351;-53
2021/08/29 02:13:14;;;;;;;13.95;8.10;;;;;;;;;;2071598;28;20337;-51
2021/08/29 02:14:18;;;;;;;14.90;8.07;;;;;;;;;;2068102;28;20196;-54
2021/08/29 02:15:26;;;;;;;11.88;8.95;;;;;;;;;;2062400;28;20170;-54
2021/08/29 02:16:27;;;;;;;13.95;9.15;;;;;;;;;;2059291;28;20170;-52
2021/08/29 02:17:28;;;;;;;15.82;8.60;;;;;;;;;;2079108;28;20696;-51
2021/08/29 02:18:32;;;;;;;15.05;8.35;;;;;;;;;;2074038;28;20184;-53
2021/08/29 02:19:34;;;;;;;17.95;8.38;;;;;;;;;;2064230;28;20305;-52
2021/08/29 02:20:38;;;;;;;18.08;8.57;;;;;;;;;;2067559;28;20839;-53
2021/08/29 02:21:39;;;;;;;14.48;8.60;;;;;;;;;;2087153;28;20192;-52
2021/08/29 02:22:41;;;;;;;12.13;8.00;;;;;;;;;;2066630;28;20177;-52
2021/08/29 02:23:43;;;;;;;14.25;8.02;;;;;;;;;;2068770;28;20173;-52
2021/08/29 02:24:44;;;;;;;15.45;8.75;;;;;;;;;;2065811;28;20224;-55
2021/08/29 02:25:48;;;;;;;11.00;8.60;;;;;;;;;;2070481;28;20180;-52
2021/08/29 02:26:50;;;;;;;14.63;8.85;;;;;;;;;;2066854;28;20170;-51
2021/08/29 02:27:52;;;;;;;14.77;8.38;;;;;;;;;;2066672;28;20220;-55
2021/08/29 02:28:53;;;;;;;12.07;8.43;;;;;;;;;;2073777;28;20187;-57
2021/08/29 02:29:54;;;;;;;15.75;9.20;;;;;;;;;;2085601;28;20644;-54
2021/08/29 02:30:55;;;;;;;14.82;9.27;;;;;;;;;;2075367;28;20160;-56
2021/08/29 02:31:55;;;;;;;15.48;9.13;;;;;;;;;;2080191;28;20255;-53
2021/08/29 02:32:57;;;;;;;10.43;8.13;;;;;;;;;;2077217;28;20180;-56
2021/08/29 02:34:00;;;;;;;12.90;8.88;;;;;;;;;;2068276;28;20165;-52
2021/08/29 02:35:03;;;;;;;13.98;8.70;;;;;;;;;;2068109;28;20197;-55
2021/08/29 02:36:15;;;;;;;10.50;8.82;;;;;;;;;;2063527;28;20162;-54
2021/08/29 02:37:22;;;;;;;14.07;8.07;;;;;;;;;;2063825;28;20173;-52
2021/08/29 02:38:30;;;;;;;12.90;8.35;;;;;;;;;;2071674;28;20546;-55
2021/08/29 02:39:32;;;;;;;12.80;8.27;;;;;;;;;;2047947;28;20178;-54
2021/08/29 02:40:35;;;;;;;13.13;8.60;;;;;;;;;;2060984;28;20205;-52
2021/08/29 02:41:36;;;;;;;14.45;8.63;;;;;;;;;;2070955;28;20180;-54
2021/08/29 02:42:38;;;;;;;12.60;8.70;;;;;;;;;;2063193;28;20177;-52
2021/08/29 02:43:44;;;;;;;13.00;7.70;;;;;;;;;;2070520;28;20215;-52
2021/08/29 02:44:45;;;;;;;14.45;8.30;;;;;;;;;;2071850;28;20709;-51
2021/08/29 02:45:46;;;;;;;13.32;9.10;;;;;;;;;;2077446;28;20183;-52
2021/08/29 02:46:51;;;;;;;15.48;8.95;;;;;;;;;;2065045;28;20177;-50
2021/08/29 02:47:52;;;;;;;15.02;8.98;;;;;;;;;;2068579;28;20162;-51
2021/08/29 02:48:56;;;;;;;14.65;8.13;;;;;;;;;;2067418;28;20180;-54
2021/08/29 02:49:57;;;;;;;12.43;8.95;;;;;;;;;;2076233;28;20312;-54
2021/08/29 02:50:58;;;;;;;15.30;9.30;;;;;;;;;;2070237;28;20617;-54
2021/08/29 02:51:59;;;;;;;15.43;9.07;;;;;;;;;;2067448;28;20177;-52
2021/08/29 02:53:00;;;;;;;14.43;8.48;;;;;;;;;;2067665;28;20193;-53
2021/08/29 02:54:00;;;;;;;13.57;8.02;;;;;;;;;;2064958;28;20230;-51
2021/08/29 02:55:02;;;;;;;14.93;9.35;;;;;;;;;;2067192;28;20383;-53
2021/08/29 02:56:04;;;;;;;14.60;9.40;;;;;;;;;;2063854;28;20178;-52
2021/08/29 02:57:10;;;;;;;12.50;8.57;;;;;;;;;;2065341;28;20264;-55
2021/08/29 02:58:12;;;;;;;11.82;8.23;;;;;;;;;;2074693;28;20637;-50
2021/08/29 02:59:44;;;;;;;14.57;8.80;;;;;;;;;;2069773;28;20182;-52
2021/08/29 03:00:45;;;;;;;13.73;9.10;;;;;;;;;;2070261;28;20176;-51
2021/08/29 03:01:55;;;;;;;14.77;10.52;;;;;;;;;;2069623;28;20272;-50
2021/08/29 03:03:04;;;;;;;12.85;8.05;;;;;;;;;;2075462;28;20197;-51
2021/08/29 03:04:07;;;;;;;15.07;8.73;;;;;;;;;;2069158;28;20169;-52
2021/08/29 03:05:10;;;;;;;14.15;9.75;;;;;;;;;;2065209;28;20232;-52
2021/08/29 03:06:11;;;;;;;13.20;8.68;;;;;;;;;;2074366;28;20214;-53
2021/08/29 03:07:11;;;;;;;16.52;9.82;;;;;;;;;;2073160;28;20177;-54
2021/08/29 03:08:12;;;;;;;11.48;9.30;;;;;;;;;;2073703;28;20180;-51
2021/08/29 03:09:12;;;;;;;10.70;7.80;;;;;;;;;;2070020;28;20220;-52
2021/08/29 03:10:16;;;;;;;16.42;8.95;;;;;;;;;;2071472;28;20177;-52
2021/08/29 03:11:19;;;;;;;14.38;9.73;;;;;;;;;;2052030;28;20175;-53
2021/08/29 03:12:19;;;;;;;11.80;8.32;;;;;;;;;;2068651;28;20180;-51
2021/08/29 03:13:51;;;;;;;14.40;8.95;;;;;;;;;;2079068;28;20188;-52
2021/08/29 03:14:52;;;;;;;11.45;8.05;;;;;;;;;;2075064;28;20192;-54
2021/08/29 03:15:55;;;;;;;11.43;8.25;;;;;;;;;;2069230;28;20204;-52
2021/08/29 03:17:14;;;;;;;11.85;8.10;;;;;;;;;;2077940;28;20740;-53
2021/08/29 03:18:21;;;;;;;14.60;8.25;;;;;;;;;;2078092;28;20623;-52
2021/08/29 03:19:22;;;;;;;13.13;9.35;;;;;;;;;;2073348;28;20216;-53
2021/08/29 03:20:42;;;;;;;11.32;8.25;;;;;;;;;;2077299;28;20188;-53
2021/08/29 03:21:43;;;;;;;11.57;7.95;;;;;;;;;;2088953;28;20339;-52
2021/08/29 03:22:43;;;;;;;13.63;9.48;;;;;;;;;;2074266;28;20275;-51
2021/08/29 03:23:44;;;;;;;11.85;8.77;;;;;;;;;;2071754;28;20173;-51
2021/08/29 03:24:44;;;;;;;12.07;8.50;;;;;;;;;;2075466;28;20208;-52
2021/08/29 03:25:45;;;;;;;14.25;8.93;;;;;;;;;;2072817;28;20216;-55
2021/08/29 03:26:46;;;;;;;15.50;9.80;;;;;;;;;;2073560;28;20668;-53
2021/08/29 03:27:54;;;;;;;17.83;9.40;;;;;;;;;;2072061;28;20177;-51
2021/08/29 03:28:55;;;;;;;11.40;8.80;;;;;;;;;;2065503;28;20235;-51
2021/08/29 03:29:55;;;;;;;13.15;8.98;;;;;;;;;;2068672;28;20225;-52
2021/08/29 03:30:55;;;;;;;15.43;8.75;;;;;;;;;;2073534;28;20165;-54
2021/08/29 03:31:57;;;;;;;14.88;9.77;;;;;;;;;;2065430;28;20189;-51
2021/08/29 03:32:58;;;;;;;12.90;9.95;;;;;;;;;;2073858;28;20185;-51
2021/08/29 03:34:11;;;;;;;15.52;9.52;;;;;;;;;;2073450;28;20672;-56
2021/08/29 03:35:13;;;;;;;15.90;9.18;;;;;;;;;;2073514;28;20193;-52
2021/08/29 03:36:20;;;;;;;15.40;8.85;;;;;;;;;;2066193;28;20177;-52
2021/08/29 03:37:21;;;;;;;15.80;8.25;;;;;;;;;;2065588;28;20257;-53
2021/08/29 03:38:21;;;;;;;10.30;8.30;;;;;;;;;;2065059;28;20199;-53
2021/08/29 03:39:25;;;;;;;11.85;8.55;;;;;;;;;;2057519;28;20661;-53
2021/08/29 03:40:26;;;;;;;12.70;8.15;;;;;;;;;;2058269;28;20210;-55
2021/08/29 03:41:27;;;;;;;10.05;9.00;;;;;;;;;;2073603;28;20619;-52
2021/08/29 03:42:30;;;;;;;11.43;8.63;;;;;;;;;;2065347;28;20166;-53
2021/08/29 03:43:33;;;;;;;11.57;8.57;;;;;;;;;;2050453;28;20658;-53
2021/08/29 03:44:34;;;;;;;12.15;7.90;;;;;;;;;;2049539;28;20593;-53
2021/08/29 03:45:35;;;;;;;12.75;8.60;;;;;;;;;;2057319;28;20178;-52
2021/08/29 03:46:36;;;;;;;14.25;8.80;;;;;;;;;;2065088;28;20571;-52
2021/08/29 03:47:41;;;;;;;10.98;8.13;;;;;;;;;;2065408;28;20165;-51
2021/08/29 03:48:43;;;;;;;15.25;8.65;;;;;;;;;;2056982;28;20221;-51
2021/08/29 03:49:44;;;;;;;13.23;9.32;;;;;;;;;;2057688;28;20178;-53
2021/08/29 03:50:49;;;;;;;11.73;8.57;;;;;;;;;;2073302;28;20169;-53
2021/08/29 03:51:50;;;;;;;11.55;9.00;;;;;;;;;;2073381;28;20213;-51
2021/08/29 03:52:50;;;;;;;12.50;8.90;;;;;;;;;;2065196;28;20181;-51
2021/08/29 03:54:01;;;;;;;10.77;8.60;;;;;;;;;;2074666;28;20248;-55
2021/08/29 03:55:01;;;;;;;11.85;8.50;;;;;;;;;;2073286;28;20215;-51
2021/08/29 03:56:02;;;;;;;11.30;8.95;;;;;;;;;;2065383;28;20186;-51
2021/08/29 03:57:02;;;;;;;13.02;8.65;;;;;;;;;;2057203;28;20681;-53
2021/08/29 03:58:04;;;;;;;12.15;8.90;;;;;;;;;;2057127;28;20170;-52
2021/08/29 03:59:12;;;;;;;10.70;8.50;;;;;;;;;;2066466;28;20177;-53
2021/08/29 04:00:12;;;;;;;12.57;9.05;;;;;;;;;;2066383;28;20765;-55
2021/08/29 04:01:16;;;;;;;12.38;8.50;;;;;;;;;;2074700;28;20573;-55
2021/08/29 04:02:17;;;;;;;11.65;9.07;;;;;;;;;;2074339;28;20189;-55
2021/08/29 04:03:17;;;;;;;9.07;8.18;;;;;;;;;;2058650;28;20666;-57
2021/08/29 04:04:36;;;;;;;11.25;8.65;;;;;;;;;;2063149;28;20170;-55
2021/08/29 04:05:37;;;;;;;12.85;9.07;;;;;;;;;;2069679;28;20411;-55
2021/08/29 04:06:37;;;;;;;10.43;8.48;;;;;;;;;;2066711;28;20173;-54
2021/08/29 04:07:43;;;;;;;9.85;8.55;;;;;;;;;;2066971;28;20574;-55
2021/08/29 04:08:54;;;;;;;11.85;8.90;;;;;;;;;;2066457;28;20176;-55
2021/08/29 04:09:55;;;;;;;11.70;8.85;;;;;;;;;;2062775;28;20823;-55
2021/08/29 04:10:58;;;;;;;12.25;9.15;;;;;;;;;;2060987;28;20166;-55
2021/08/29 04:12:01;;;;;;;13.57;8.63;;;;;;;;;;2067186;28;20178;-54
2021/08/29 04:13:14;;;;;;;9.55;7.38;;;;;;;;;;2072848;28;20165;-50
2021/08/29 04:14:33;;;;;;;8.90;8.00;;;;;;;;;;2072806;28;20188;-53
2021/08/29 04:15:36;;;;;;;13.07;8.63;;;;;;;;;;2072312;28;20165;-54
2021/08/29 04:16:38;;;;;;;8.57;7.70;;;;;;;;;;2065691;28;20180;-53
2021/08/29 04:17:57;;;;;;;12.63;8.50;;;;;;;;;;2071247;28;20185;-53
2021/08/29 04:18:58;;;;;;;9.73;8.07;;;;;;;;;;2068086;28;20264;-52
2021/08/29 04:20:00;;;;;;;10.13;8.65;;;;;;;;;;2057334;28;20218;-51
2021/08/29 04:21:00;;;;;;;10.88;9.13;;;;;;;;;;2065175;28;20599;-55
2021/08/29 04:22:01;;;;;;;10.98;8.68;;;;;;;;;;2076351;28;20165;-54
2021/08/29 04:23:03;;;;;;;11.50;8.70;;;;;;;;;;2069018;28;20185;-54
2021/08/29 04:24:04;;;;;;;12.55;8.68;;;;;;;;;;2063865;28;20171;-52
2021/08/29 04:25:15;;;;;;;12.75;8.60;;;;;;;;;;2069190;28;20696;-53
2021/08/29 04:26:16;;;;;;;11.18;8.63;;;;;;;;;;2066430;28;20178;-53
2021/08/29 04:27:18;;;;;;;9.80;8.73;;;;;;;;;;2074626;28;20657;-50
2021/08/29 04:28:22;;;;;;;12.20;8.68;;;;;;;;;;2087813;28;20202;-52
2021/08/29 04:29:23;;;;;;;9.75;8.30;;;;;;;;;;2081964;28;20164;-55
2021/08/29 04:30:23;;;;;;;12.38;8.80;;;;;;;;;;2079143;28;20180;-51
2021/08/29 04:31:27;;;;;;;10.18;8.23;;;;;;;;;;2072367;28;20591;-52
2021/08/29 04:32:31;;;;;;;12.45;8.00;;;;;;;;;;2073445;28;20636;-54
2021/08/29 04:33:32;;;;;;;13.15;8.95;;;;;;;;;;2064061;28;20182;-55
2021/08/29 04:34:51;;;;;;;10.98;8.57;;;;;;;;;;2072812;28;20197;-57
2021/08/29 04:35:59;;;;;;;10.23;8.65;;;;;;;;;;2072818;28;20184;-54
2021/08/29 04:37:00;;;;;;;9.98;8.38;;;;;;;;;;2072690;28;20263;-55
2021/08/29 04:38:15;;;;;;;10.02;7.38;;;;;;;;;;2078517;28;20182;-53
2021/08/29 04:39:15;;;;;;;10.85;7.60;;;;;;;;;;2074734;28;20164;-55
2021/08/29 04:40:15;;;;;;;9.25;7.93;;;;;;;;;;2070679;28;20204;-55
2021/08/29 04:41:25;;;;;;;10.02;7.50;;;;;;;;;;2067977;28;20584;-53
2021/08/29 04:42:25;;;;;;;10.32;7.25;;;;;;;;;;2079884;28;20176;-54
2021/08/29 04:43:27;;;;;;;9.45;7.18;;;;;;;;;;2072360;28;20259;-51
2021/08/29 04:44:28;;;;;;;9.38;7.25;;;;;;;;;;2068962;28;20174;-55
2021/08/29 04:45:29;;;;;;;7.78;6.65;;;;;;;;;;2068063;28;20276;-51
2021/08/29 04:46:32;;;;;;;9.07;6.95;;;;;;;;;;2064621;28;20217;-51
2021/08/29 04:47:33;;;;;;;8.15;6.45;;;;;;;;;;2063108;28;20178;-53
2021/08/29 04:48:33;;;;;;;9.13;6.38;;;;;;;;;;2079640;28;20176;-52
2021/08/29 04:49:34;;;;;;;8.68;6.70;;;;;;;;;;2064785;28;20208;-51
2021/08/29 04:50:34;;;;;;;7.60;6.80;;;;;;;;;;2064278;28;20178;-51
2021/08/29 04:51:37;;;;;;;8.70;6.50;;;;;;;;;;2063696;28;20177;-52
2021/08/29 04:52:38;;;;;;;8.90;6.30;;;;;;;;;;2079990;28;20565;-53
2021/08/29 04:53:40;;;;;;;7.30;5.90;;;;;;;;;;2060251;28;20665;-51
2021/08/29 04:55:50;;;;;;;6.93;6.15;;;;;;;;;;2066149;28;20264;-52
2021/08/29 04:56:50;;;;;;;8.52;5.70;;;;;;;;;;2064034;28;20323;-55
2021/08/29 04:57:52;;;;;;;6.50;5.15;;;;;;;;;;2055788;28;20229;-52
2021/08/29 04:58:52;;;;;;;9.02;5.35;;;;;;;;;;2063587;28;20423;-54
2021/08/29 04:59:52;;;;;;;7.65;6.10;;;;;;;;;;2063873;28;20622;-52
2021/08/29 05:00:53;;;;;;;7.63;5.82;;;;;;;;;;2059915;28;20332;-52
2021/08/29 05:01:53;;;;;;;7.78;5.40;;;;;;;;;;2072793;28;20181;-52
2021/08/29 05:02:54;;;;;;;9.50;6.88;;;;;;;;;;2073047;28;20316;-56
2021/08/29 05:03:55;;;;;;;5.15;4.75;;;;;;;;;;2072984;28;20169;-55
2021/08/29 05:04:55;;;;;;;5.05;4.60;;;;;;;;;;2058891;28;20180;-54
2021/08/29 05:05:56;;;;;;;8.32;5.72;;;;;;;;;;2056533;28;20305;-55
2021/08/29 05:06:56;;;;;;;6.38;5.25;;;;;;;;;;2064826;28;20205;-55
2021/08/29 05:08:00;;;;;;;8.80;5.72;;;;;;;;;;2062957;28;20178;-55
2021/08/29 05:09:00;;;;;;;7.15;6.45;;;;;;;;;;2062041;28;20174;-55
2021/08/29 05:10:01;;;;;;;7.40;5.30;;;;;;;;;;2056449;28;20671;-49
2021/08/29 05:11:07;;;;;;;9.15;5.25;;;;;;;;;;2057033;28;20185;-56
2021/08/29 05:12:09;;;;;;;6.25;4.55;;;;;;;;;;2065764;28;20200;-53
2021/08/29 05:13:14;;;;;;;5.95;4.88;;;;;;;;;;2055889;28;20623;-58
2021/08/29 05:14:18;;;;;;;5.22;4.72;;;;;;;;;;2058584;28;20169;-53
2021/08/29 05:15:18;;;;;;;6.82;5.05;;;;;;;;;;2066461;28;20186;-55
2021/08/29 05:16:18;;;;;;;6.95;5.15;;;;;;;;;;2066189;28;20272;-52
2021/08/29 05:17:20;;;;;;;7.15;5.05;;;;;;;;;;2056799;28;20695;-56
2021/08/29 05:18:24;;;;;;;6.35;5.47;;;;;;;;;;2056369;28;20174;-52
2021/08/29 05:19:40;;;;;;;7.38;4.78;;;;;;;;;;2064923;28;20197;-57
2021/08/29 05:21:00;;;;;;;8.45;5.30;;;;;;;;;;2057487;28;20189;-55
2021/08/29 05:22:19;;;;;;;8.32;5.10;;;;;;;;;;2056880;28;20170;-52
2021/08/29 05:23:45;;;;;;;4.50;4.10;;;;;;;;;;2050061;28;20198;-51
2021/08/29 05:25:06;;;;;;;6.10;4.65;;;;;;;;;;2064031;28;20201;-53
2021/08/29 05:26:07;;;;;;;5.50;4.90;;;;;;;;;;2052081;28;20187;-54
2021/08/29 05:27:08;;;;;;;5.57;5.03;;;;;;;;;;2052915;28;20655;-49
2021/08/29 05:28:11;;;;;;;4.65;4.22;;;;;;;;;;2055262;28;20252;-54
2021/08/29 05:29:11;;;;;;;5.10;4.65;;;;;;;;;;2053388;28;20171;-54
2021/08/29 05:30:12;;;;;;;4.75;4.18;;;;;;;;;;2056376;28;20202;-51
2021/08/29 05:31:12;;;;;;;5.00;4.60;;;;;;;;;;2056412;28;20171;-55
2021/08/29 05:32:14;;;;;;;4.72;4.10;;;;;;;;;;2056368;28;20182;-51
2021/08/29 05:33:16;;;;;;;5.60;4.60;;;;;;;;;;2063786;28;20177;-54
2021/08/29 05:34:16;;;;;;;5.03;4.05;;;;;;;;;;2064039;28;20261;-57
2021/08/29 05:35:17;;;;;;;4.47;4.10;;;;;;;;;;2055961;28;20194;-57
2021/08/29 05:36:17;;;;;;;4.95;4.53;;;;;;;;;;2056051;28;20170;-54
2021/08/29 05:37:17;;;;;;;5.10;4.60;;;;;;;;;;2063944;28;20165;-51
2021/08/29 05:38:36;;;;;;;4.72;4.30;;;;;;;;;;2060231;28;20166;-52
2021/08/29 05:39:47;;;;;;;5.25;4.32;;;;;;;;;;2055808;28;20653;-50
2021/08/29 05:40:48;;;;;;;4.25;3.95;;;;;;;;;;2055634;28;20217;-51
2021/08/29 05:42:07;;;;;;;3.58;3.38;;;;;;;;;;2062203;28;20174;-50
2021/08/29 05:43:18;;;;;;;4.25;3.85;;;;;;;;;;2062679;28;20584;-52
2021/08/29 05:44:19;;;;;;;5.63;3.95;;;;;;;;;;2064135;28;20213;-56
2021/08/29 05:45:19;;;;;;;5.97;3.95;;;;;;;;;;2062529;28;20717;-56
2021/08/29 05:46:20;;;;;;;4.50;4.10;;;;;;;;;;2052116;28;20186;-51
2021/08/29 05:47:20;;;;;;;5.40;4.50;;;;;;;;;;2054756;28;20167;-51
2021/08/29 05:48:21;;;;;;;5.50;4.38;;;;;;;;;;2055236;28;20213;-55
2021/08/29 05:49:22;;;;;;;4.68;4.13;;;;;;;;;;2055433;28;20643;-55
2021/08/29 05:50:22;;;;;;;5.03;4.53;;;;;;;;;;2063621;28;20231;-52
2021/08/29 05:51:23;;;;;;;5.53;5.03;;;;;;;;;;2055162;28;20170;-53
2021/08/29 05:52:24;;;;;;;6.80;4.07;;;;;;;;;;2056470;28;20552;-56
2021/08/29 05:53:24;;;;;;;4.63;4.22;;;;;;;;;;2063854;28;20173;-54
2021/08/29 05:54:29;;;;;;;4.53;4.10;;;;;;;;;;2055448;28;20300;-53
2021/08/29 05:55:29;;;;;;;5.05;4.55;;;;;;;;;;2055683;28;20265;-51
2021/08/29 05:56:32;;;;;;;4.45;4.05;;;;;;;;;;2063677;28;20585;-52
2021/08/29 05:57:34;;;;;;;5.15;4.60;;;;;;;;;;2063882;28;20193;-55
2021/08/29 05:58:34;;;;;;;4.57;4.15;;;;;;;;;;2060608;28;20225;-55
2021/08/29 05:59:35;;;;;;;6.22;4.45;;;;;;;;;;2063638;28;20185;-57
2021/08/29 06:00:36;;;;;;;4.28;3.90;;;;;;;;;;2055986;28;20198;-52
2021/08/29 06:01:37;;;;;;;4.38;3.97;;;;;;;;;;2047365;28;20201;-56
2021/08/29 06:02:37;;;;;;;3.65;3.35;;;;;;;;;;2055471;28;20205;-52
2021/08/29 06:03:38;;;;;;;3.83;3.38;;;;;;;;;;2059629;28;20187;-55
2021/08/29 06:04:43;;;;;;;4.18;3.72;;;;;;;;;;2063703;28;20184;-57
2021/08/29 06:05:53;;;;;;;3.42;3.13;;;;;;;;;;2064133;28;20376;-53
2021/08/29 06:06:54;;;;;;;3.60;3.30;;;;;;;;;;2063448;28;20545;-52
2021/08/29 06:07:55;;;;;;;3.20;3.00;;;;;;;;;;2063443;28;20170;-49
2021/08/29 06:08:55;;;;;;;3.28;3.08;;;;;;;;;;2058046;28;20178;-54
2021/08/29 06:09:55;;;;;;;4.00;3.53;;;;;;;;;;2057671;28;20171;-53
2021/08/29 06:10:56;;;;;;;2.88;2.67;;;;;;;;;;2055251;28;20615;-54
2021/08/29 06:11:57;;;;;;;3.65;3.45;;;;;;;;;;2055573;28;20242;-56
2021/08/29 06:12:57;;;;;;;4.57;3.88;;;;;;;;;;2065957;28;20618;-54
2021/08/29 06:13:57;;;;;;;3.33;3.13;;;;;;;;;;2064963;28;20182;-51
2021/08/29 06:14:58;;;;;;;3.25;3.05;;;;;;;;;;2055679;28;20683;-52
2021/08/29 06:15:58;;;;;;;3.72;3.42;;;;;;;;;;2053037;28;20193;-56
2021/08/29 06:16:59;;;;;;;3.40;3.03;;;;;;;;;;2054924;28;20170;-52
2021/08/29 06:18:03;;;;;;;3.60;3.30;;;;;;;;;;2053182;28;20214;-51
2021/08/29 06:19:03;;;;;;;3.08;2.88;;;;;;;;;;2056761;28;20181;-56